Time;durP1;ratioP1;P1;durP2;ratioP2;P2;SDS_P1;SDS_P2;PMS_P1;PMS_P2;Temp;Humidity;BMP_temperature;BMP_pressure;BME280_temperature;BME280_humidity;BME280_pressure;Samples;Min_cycle;Max_cycle;Signal;HPM_P1;HPM_P2
2023/01/30 00:00:07;;;;;;;;;;;;;;;-9.78;59.48;97044.72;6224962;28;19932;-69
2023/01/30 00:03:10;;;;;;;;;;;;;;;-9.77;59.36;97036.25;6225280;28;19932;-69
2023/01/30 00:06:12;;;;;;;;;;;;;;;-9.91;59.40;97047.88;6224603;28;20310;-70
2023/01/30 00:09:15;;;;;;;;;;;;;;;-9.88;59.58;97047.94;6225049;28;19925;-70
2023/01/30 00:12:19;;;;;;;;;;;;;;;-9.88;59.22;97047.94;6225061;28;19925;-69
2023/01/30 00:15:20;;;;;;;;;;;;;;;-9.94;59.78;97052.09;6224443;28;19926;-69
2023/01/30 00:18:23;;;;;;;;;;;;;;;-9.89;59.32;97046.22;6224558;28;19926;-69
2023/01/30 00:21:27;;;;;;;;;;;;;;;-10.14;59.61;97048.31;6225046;28;19926;-69
2023/01/30 00:24:32;;;;;;;;;;;;;;;-10.13;60.00;97057.69;6224974;28;19932;-69
2023/01/30 00:27:38;;;;;;;;;;;;;;;-10.20;59.88;97061.78;6224563;28;19926;-69
2023/01/30 00:30:47;;;;;;;;;;;;;;;-10.07;60.02;97062.03;6224514;28;19925;-68
2023/01/30 00:33:50;;;;;;;;;;;;;;;-10.05;59.69;97051.03;6224310;28;20361;-69
2023/01/30 00:36:51;;;;;;;;;;;;;;;-10.16;59.90;97052.56;6224377;28;19926;-69
2023/01/30 00:39:54;;;;;;;;;;;;;;;-10.01;60.31;97057.91;6223443;28;20015;-68
2023/01/30 00:49:37;;;;;;;;;;;;;;;-9.96;60.07;97056.31;6222462;28;20016;-69
2023/01/30 00:52:38;;;;;;;;;;;;;;;-9.82;60.09;97037.84;6223498;28;19931;-69
2023/01/30 00:55:43;;;;;;;;;;;;;;;-9.87;59.74;97042.88;6222749;28;20422;-69
2023/01/30 00:58:47;;;;;;;;;;;;;;;-10.18;59.91;97038.94;6223425;28;20323;-68
2023/01/30 01:01:50;;;;;;;;;;;;;;;-10.15;60.56;97039.00;6223884;28;19921;-69
2023/01/30 01:04:53;;;;;;;;;;;;;;;-10.06;60.31;97041.69;6223106;28;19932;-68
2023/01/30 01:07:57;;;;;;;;;;;;;;;-10.04;60.27;97052.78;6223871;28;19925;-69
2023/01/30 01:10:58;;;;;;;;;;;;;;;-10.16;60.17;97052.56;6223240;28;19930;-69
2023/01/30 01:14:00;;;;;;;;;;;;;;;-10.06;60.53;97049.34;6223203;28;19926;-69
2023/01/30 01:17:01;;;;;;;;;;;;;;;-9.95;60.15;97052.94;6223586;28;19925;-69
2023/01/30 01:20:02;;;;;;;;;;;;;;;-9.52;59.40;97055.34;6222625;28;19925;-69
2023/01/30 01:23:04;;;;;;;;;;;;;;;-9.39;58.93;97049.63;6223183;28;20319;-70
2023/01/30 01:26:09;;;;;;;;;;;;;;;-9.54;59.57;97040.06;6223478;28;19925;-68
2023/01/30 01:29:14;;;;;;;;;;;;;;;-9.44;59.63;97055.47;6222959;28;19932;-69
2023/01/30 01:32:15;;;;;;;;;;;;;;;-9.40;59.03;97049.59;6221943;28;19948;-70
2023/01/30 01:35:18;;;;;;;;;;;;;;;-9.59;59.36;97056.09;6223041;28;19933;-68
2023/01/30 01:38:21;;;;;;;;;;;;;;;-9.33;58.97;97053.97;6223168;28;19925;-70
2023/01/30 01:41:25;;;;;;;;;;;;;;;-9.46;59.22;97047.81;6222656;28;19925;-70
2023/01/30 01:44:45;;;;;;;;;;;;;;;-9.78;59.94;97044.72;6222385;28;19932;-70
2023/01/30 01:47:58;;;;;;;;;;;;;;;-9.63;60.10;97050.06;6222307;28;19932;-70
2023/01/30 01:51:09;;;;;;;;;;;;;;;-9.58;60.02;97040.81;6222847;28;19926;-70
2023/01/30 01:54:16;;;;;;;;;;;;;;;-9.57;59.81;97047.63;6221879;28;19932;-70
2023/01/30 01:57:22;;;;;;;;;;;;;;;-9.75;59.76;97039.69;6221794;28;19948;-70
2023/01/30 02:00:23;;;;;;;;;;;;;;;-9.77;60.46;97043.91;6222220;28;19940;-69
2023/01/30 02:03:27;;;;;;;;;;;;;;;-9.66;60.24;97039.84;6221366;28;19936;-69
2023/01/30 02:06:31;;;;;;;;;;;;;;;-9.54;60.50;97040.06;6222370;28;20406;-69
2023/01/30 02:09:32;;;;;;;;;;;;;;;-9.80;60.54;97043.84;6221441;28;19926;-68
2023/01/30 02:12:33;;;;;;;;;;;;;;;-9.88;60.98;97048.78;6221708;28;20279;-70
2023/01/30 02:15:37;;;;;;;;;;;;;;;-9.76;61.14;97043.09;6222137;28;19929;-69
2023/01/30 02:18:41;;;;;;;;;;;;;;;-9.88;61.14;97043.69;6221341;28;19925;-69
2023/01/30 02:21:48;;;;;;;;;;;;;;;-9.87;61.27;97039.50;6221638;28;19937;-69
2023/01/30 02:25:05;;;;;;;;;;;;;;;-9.71;60.66;97044.00;6221525;28;19932;-69
2023/01/30 02:28:09;;;;;;;;;;;;;;;-9.89;60.87;97042.00;6221630;28;20062;-69
2023/01/30 02:31:25;;;;;;;;;;;;;;;-10.00;61.14;97036.72;6221381;28;19925;-69
2023/01/30 02:34:35;;;;;;;;;;;;;;;-10.05;61.23;97037.47;6221212;28;20314;-69
2023/01/30 02:37:41;;;;;;;;;;;;;;;-10.19;61.29;97038.09;6221219;28;20428;-69
2023/01/30 02:40:57;;;;;;;;;;;;;;;-10.10;61.53;97034.00;6221086;28;19947;-69
2023/01/30 02:44:24;;;;;;;;;;;;;;;-9.89;60.90;97041.16;6221060;28;19932;-69
2023/01/30 02:47:32;;;;;;;;;;;;;;;-10.02;61.29;97046.03;6219804;28;19932;-70
2023/01/30 02:50:35;;;;;;;;;;;;;;;-10.07;61.38;97057.81;6219387;28;20403;-68
2023/01/30 02:53:45;;;;;;;;;;;;;;;-9.98;61.33;97057.13;6221256;28;19925;-69
2023/01/30 02:56:48;;;;;;;;;;;;;;;-10.05;61.26;97051.03;6220312;28;20310;-70
2023/01/30 02:59:55;;;;;;;;;;;;;;;-10.16;61.43;97065.28;6220991;28;20423;-70
2023/01/30 03:03:08;;;;;;;;;;;;;;;-10.14;61.34;97062.75;6220589;28;19925;-69
2023/01/30 03:06:25;;;;;;;;;;;;;;;-10.12;61.33;97058.56;6220742;28;19926;-69
2023/01/30 03:09:38;;;;;;;;;;;;;;;-10.11;61.45;97068.75;6220553;28;19930;-69
2023/01/30 03:12:47;;;;;;;;;;;;;;;-10.01;61.19;97055.38;6220215;28;20382;-70
2023/01/30 03:15:50;;;;;;;;;;;;;;;-10.16;61.36;97070.38;6219155;28;19932;-69
2023/01/30 03:18:54;;;;;;;;;;;;;;;-10.18;61.53;97069.47;6220987;28;19925;-69
2023/01/30 03:21:57;;;;;;;;;;;;;;;-10.43;61.74;97070.72;6220494;28;19925;-69
2023/01/30 03:24:58;;;;;;;;;;;;;;;-10.45;62.22;97075.75;6220312;28;20063;-68
2023/01/30 03:28:01;;;;;;;;;;;;;;;-10.09;62.00;97082.38;6220371;28;19925;-69
2023/01/30 03:31:04;;;;;;;;;;;;;;;-10.17;61.90;97076.25;6220399;28;19937;-68
2023/01/30 03:34:07;;;;;;;;;;;;;;;-10.18;62.26;97084.75;6219832;28;20318;-69
2023/01/30 03:37:08;;;;;;;;;;;;;;;-10.16;62.14;97083.09;6220558;28;19925;-69
2023/01/30 03:40:11;;;;;;;;;;;;;;;-10.14;62.72;97081.41;6219710;28;19925;-69
2023/01/30 03:43:14;;;;;;;;;;;;;;;-10.24;62.89;97075.31;6220201;28;19925;-70
2023/01/30 03:46:15;;;;;;;;;;;;;;;-10.06;63.12;97084.09;6219733;28;19925;-70
2023/01/30 03:49:16;;;;;;;;;;;;;;;-10.19;62.96;97088.97;6219528;28;19932;-69
2023/01/30 03:52:23;;;;;;;;;;;;;;;-10.38;63.38;97086.94;6220234;28;19925;-70
2023/01/30 03:55:27;;;;;;;;;;;;;;;-10.44;63.37;97084.25;6220202;28;19965;-69
2023/01/30 03:58:28;;;;;;;;;;;;;;;-10.47;63.75;97087.59;6220142;28;19930;-70
2023/01/30 04:01:29;;;;;;;;;;;;;;;-10.11;62.99;97090.78;6220105;28;19925;-69
2023/01/30 04:04:34;;;;;;;;;;;;;;;-10.31;62.59;97077.72;6219148;28;20319;-69
2023/01/30 04:07:40;;;;;;;;;;;;;;;-10.21;62.37;97080.44;6220653;28;19925;-69
2023/01/30 04:10:45;;;;;;;;;;;;;;;-10.20;62.65;97076.22;6220246;28;19958;-68
2023/01/30 04:13:49;;;;;;;;;;;;;;;-10.40;62.87;97079.25;6220363;28;19925;-69
2023/01/30 04:16:52;;;;;;;;;;;;;;;-10.31;63.21;97090.44;6220503;28;20299;-68
2023/01/30 04:19:56;;;;;;;;;;;;;;;-10.18;62.81;97077.09;6220234;28;20275;-69
2023/01/30 04:22:57;;;;;;;;;;;;;;;-10.21;62.69;97094.84;6220091;28;19926;-69
2023/01/30 04:25:58;;;;;;;;;;;;;;;-10.15;62.57;97079.72;6221212;28;20082;-68
2023/01/30 04:29:01;;;;;;;;;;;;;;;-10.02;61.66;97089.28;6224510;28;19925;-71
2023/01/30 04:32:07;;;;;;;;;;;;;;;-9.92;60.77;97079.28;6224478;28;19925;-70
2023/01/30 04:35:08;;;;;;;;;;;;;;;-9.81;60.06;97075.25;6224349;28;19925;-70
2023/01/30 04:38:11;;;;;;;;;;;;;;;-10.13;60.53;97078.06;6224436;28;20243;-69
2023/01/30 04:41:17;;;;;;;;;;;;;;;-9.90;60.85;97075.09;6224307;28;20387;-69
2023/01/30 04:44:20;;;;;;;;;;;;;;;-9.47;59.90;97070.72;6224090;28;19925;-69
2023/01/30 04:47:21;;;;;;;;;;;;;;;-9.66;60.19;97078.03;6223804;28;19929;-70
2023/01/30 04:50:22;;;;;;;;;;;;;;;-9.54;59.18;97083.38;6224000;28;19940;-69
2023/01/30 04:53:27;;;;;;;;;;;;;;;-9.69;59.96;97077.13;6223968;28;20437;-69
2023/01/30 04:56:31;;;;;;;;;;;;;;;-9.90;59.99;97082.72;6224067;28;19975;-69
2023/01/30 04:59:34;;;;;;;;;;;;;;;-9.91;60.56;97093.72;6224045;28;19926;-69
2023/01/30 05:02:35;;;;;;;;;;;;;;;-9.78;60.04;97080.38;6223613;28;20306;-69
2023/01/30 05:05:41;;;;;;;;;;;;;;;-9.83;60.54;97081.97;6223685;28;19926;-69
2023/01/30 05:08:48;;;;;;;;;;;;;;;-9.78;60.66;97085.47;6223718;28;19925;-69
2023/01/30 05:11:57;;;;;;;;;;;;;;;-9.61;60.81;97083.22;6223520;28;19940;-69
2023/01/30 05:15:03;;;;;;;;;;;;;;;-9.26;60.75;97077.00;6223522;28;19984;-70
2023/01/30 05:18:09;;;;;;;;;;;;;;;-9.40;60.56;97064.88;6222240;28;20387;-69
2023/01/30 05:21:25;;;;;;;;;;;;;;;-9.41;60.74;97073.38;6223328;28;19925;-70
2023/01/30 05:24:30;;;;;;;;;;;;;;;-9.37;60.65;97077.66;6223269;28;19925;-69
2023/01/30 05:27:34;;;;;;;;;;;;;;;-9.43;60.37;97077.56;6223215;28;20023;-70
2023/01/30 05:30:38;;;;;;;;;;;;;;;-9.38;60.19;97081.91;6223121;28;19933;-69
2023/01/30 05:33:41;;;;;;;;;;;;;;;-9.40;60.19;97078.47;6223107;28;19932;-68
2023/01/30 05:36:44;;;;;;;;;;;;;;;-9.22;60.02;97077.94;6222345;28;20383;-70
2023/01/30 05:39:50;;;;;;;;;;;;;;;-8.81;58.86;97087.88;6222230;28;19926;-69
2023/01/30 05:43:03;;;;;;;;;;;;;;;-8.77;58.32;97091.31;6222929;28;19925;-71
2023/01/30 05:46:14;;;;;;;;;;;;;;;-8.44;57.89;97086.66;6238014;28;19926;-69
2023/01/30 05:49:22;;;;;;;;;;;;;;;-8.37;57.42;97077.38;6222735;28;19932;-69
2023/01/30 05:52:29;;;;;;;;;;;;;;;-8.30;57.28;97089.34;6222764;28;19925;-70
2023/01/30 05:55:33;;;;;;;;;;;;;;;-8.25;57.29;97077.50;6222455;28;19932;-68
2023/01/30 05:58:36;;;;;;;;;;;;;;;-8.09;56.37;97059.84;6221899;28;19926;-70
2023/01/30 06:01:38;;;;;;;;;;;;;;;-7.68;55.80;97063.66;6222483;28;19925;-69
2023/01/30 06:04:39;;;;;;;;;;;;;;;-7.58;55.37;97061.19;6222045;28;19932;-69
2023/01/30 06:07:40;;;;;;;;;;;;;;;-7.32;55.43;97067.38;6222276;28;19937;-69
2023/01/30 06:10:41;;;;;;;;;;;;;;;-7.07;54.39;97070.13;6222310;28;19925;-69
2023/01/30 06:13:42;;;;;;;;;;;;;;;-7.04;54.41;97077.84;6221921;28;19926;-69
2023/01/30 06:16:43;;;;;;;;;;;;;;;-6.81;54.24;97077.97;6222067;28;20394;-69
2023/01/30 06:19:46;;;;;;;;;;;;;;;-4.95;51.38;97071.66;6221778;28;19925;-70
2023/01/30 06:22:49;;;;;;;;;;;;;;;-4.63;48.84;97071.59;6221868;28;19929;-69
2023/01/30 06:25:51;;;;;;;;;;;;;;;-5.34;49.53;97082.75;6221697;28;19925;-70
2023/01/30 06:28:52;;;;;;;;;;;;;;;-5.23;50.08;97081.91;6220965;28;19952;-69
2023/01/30 06:31:55;;;;;;;;;;;;;;;-3.73;46.91;97070.41;6221831;28;20314;-70
2023/01/30 06:34:57;;;;;;;;;;;;;;;-2.53;43.79;97072.06;6221038;28;19925;-68
2023/01/30 06:37:58;;;;;;;;;;;;;;;-1.75;42.67;97080.63;6221415;28;19926;-69
2023/01/30 06:41:02;;;;;;;;;;;;;;;0.73;39.59;97078.78;6221597;28;19926;-69
2023/01/30 06:44:05;;;;;;;;;;;;;;;2.52;34.88;97068.06;6221374;28;19925;-69
2023/01/30 06:47:07;;;;;;;;;;;;;;;4.13;33.29;97082.72;6221417;28;19926;-69
2023/01/30 06:50:08;;;;;;;;;;;;;;;5.89;29.19;97074.94;6220822;28;20011;-69
2023/01/30 06:53:11;;;;;;;;;;;;;;;6.77;28.09;97082.41;6221364;28;19925;-69
2023/01/30 06:56:15;;;;;;;;;;;;;;;7.67;27.35;97083.25;6221426;28;20032;-70
2023/01/30 06:59:18;;;;;;;;;;;;;;;8.49;25.64;97087.81;6221066;28;19964;-69
2023/01/30 07:02:24;;;;;;;;;;;;;;;9.43;24.46;97081.78;6221061;28;19929;-69
2023/01/30 07:05:30;;;;;;;;;;;;;;;9.46;23.59;97099.16;6221286;28;20375;-69
2023/01/30 07:08:34;;;;;;;;;;;;;;;9.93;24.18;97099.94;6220906;28;19925;-70
2023/01/30 07:11:39;;;;;;;;;;;;;;;9.83;21.59;97103.13;6221077;28;20012;-69
2023/01/30 07:14:43;;;;;;;;;;;;;;;9.42;23.59;97095.81;6221005;28;20023;-69
2023/01/30 07:17:43;;;;;;;;;;;;;;;10.59;21.32;97104.78;6220390;28;19926;-69
2023/01/30 07:20:48;;;;;;;;;;;;;;;10.56;20.61;97099.72;6220313;28;19925;-70
2023/01/30 07:23:49;;;;;;;;;;;;;;;10.96;20.81;97094.59;6219846;28;19932;-69
2023/01/30 07:26:52;;;;;;;;;;;;;;;11.67;20.28;97089.13;6220037;28;19929;-70
2023/01/30 07:29:56;;;;;;;;;;;;;;;12.25;19.53;97091.47;6220870;28;19926;-69
2023/01/30 07:32:59;;;;;;;;;;;;;;;12.70;19.39;97087.44;6220678;28;19926;-68
2023/01/30 07:36:03;;;;;;;;;;;;;;;12.79;19.01;97084.19;6220777;28;19925;-69
2023/01/30 07:39:08;;;;;;;;;;;;;;;12.31;19.24;97088.41;6220503;28;19926;-69
2023/01/30 07:42:09;;;;;;;;;;;;;;;11.79;19.51;97081.34;6219867;28;19925;-68
2023/01/30 07:45:12;;;;;;;;;;;;;;;11.52;19.45;97076.97;6220339;28;19925;-68
2023/01/30 07:48:14;;;;;;;;;;;;;;;11.25;19.43;97079.59;6220219;28;19925;-70
2023/01/30 07:51:20;;;;;;;;;;;;;;;11.26;19.38;97078.63;6220250;28;19925;-69
2023/01/30 07:54:22;;;;;;;;;;;;;;;11.94;19.25;97085.63;6218631;28;19932;-69
2023/01/30 07:57:25;;;;;;;;;;;;;;;12.12;18.65;97084.41;6219521;28;20020;-69
2023/01/30 08:00:29;;;;;;;;;;;;;;;11.87;18.55;97079.09;6221167;28;19925;-69
2023/01/30 08:03:35;;;;;;;;;;;;;;;10.69;19.09;97073.47;6225150;28;19925;-69
2023/01/30 08:06:38;;;;;;;;;;;;;;;10.88;18.93;97083.72;6224575;28;19926;-70
2023/01/30 08:09:42;;;;;;;;;;;;;;;10.24;19.22;97076.16;6224290;28;19925;-69
2023/01/30 08:12:45;;;;;;;;;;;;;;;10.73;19.59;97075.00;6225145;28;19925;-69
2023/01/30 08:15:46;;;;;;;;;;;;;;;11.26;18.94;97078.63;6224726;28;20028;-70
2023/01/30 08:18:47;;;;;;;;;;;;;;;11.31;18.46;97075.72;6224709;28;19925;-69
2023/01/30 08:21:51;;;;;;;;;;;;;;;11.61;18.92;97081.63;6224652;28;19929;-69
2023/01/30 08:24:54;;;;;;;;;;;;;;;12.05;18.75;97083.09;6224840;28;19936;-70
2023/01/30 08:27:59;;;;;;;;;;;;;;;12.23;18.82;97080.16;6224628;28;19925;-69
2023/01/30 08:31:07;;;;;;;;;;;;;;;11.16;19.79;97083.66;6222755;28;19925;-69
2023/01/30 08:34:13;;;;;;;;;;;;;;;11.06;20.33;97081.69;6224326;28;20429;-70
2023/01/30 08:37:14;;;;;;;;;;;;;;;11.42;19.82;97086.41;6224103;28;19925;-69
2023/01/30 08:40:19;;;;;;;;;;;;;;;11.45;20.09;97080.94;6224121;28;20016;-70
2023/01/30 08:43:20;;;;;;;;;;;;;;;11.59;19.88;97091.41;6175228;28;20506;-70
2023/01/30 08:46:21;;;;;;;;;;;;;;;11.59;20.10;97088.78;6176242;28;20025;-70
2023/01/30 08:49:27;;;;;;;;;;;;;;;11.83;19.78;97088.97;6175586;28;19926;-70
2023/01/30 08:52:31;;;;;;;;;;;;;;;11.85;19.92;97084.44;6175340;28;19929;-69
2023/01/30 08:55:34;;;;;;;;;;;;;;;12.51;19.45;97080.00;6175510;28;19926;-70
2023/01/30 08:58:35;;;;;;;;;;;;;;;13.33;19.45;97079.50;6175408;28;19929;-69
2023/01/30 09:01:39;;;;;;;;;;;;;;;13.96;18.08;97085.47;6175332;28;19930;-69
2023/01/30 09:04:42;;;;;;;;;;;;;;;14.04;17.81;97072.47;6175510;28;19926;-70
2023/01/30 09:07:46;;;;;;;;;;;;;;;13.20;18.46;97069.81;6174877;28;19926;-70
2023/01/30 09:10:49;;;;;;;;;;;;;;;13.35;18.19;97069.69;6175116;28;19930;-70
2023/01/30 09:13:52;;;;;;;;;;;;;;;13.47;18.37;97064.34;6174944;28;19926;-69
2023/01/30 09:16:55;;;;;;;;;;;;;;;13.81;18.03;97058.34;6174735;28;19930;-69
2023/01/30 09:19:59;;;;;;;;;;;;;;;14.29;18.11;97068.81;6174917;28;19926;-69
2023/01/30 09:23:03;;;;;;;;;;;;;;;14.53;17.91;97061.66;6174804;28;19926;-70
2023/01/30 09:26:04;;;;;;;;;;;;;;;14.59;17.88;97063.81;6174806;28;19933;-70
2023/01/30 09:29:07;;;;;;;;;;;;;;;14.59;17.69;97073.59;6174923;28;20047;-70
2023/01/30 09:32:11;;;;;;;;;;;;;;;14.22;18.00;97065.81;6175012;28;19933;-69
2023/01/30 09:35:12;;;;;;;;;;;;;;;13.48;18.36;97060.75;6174847;28;19930;-69
2023/01/30 09:38:18;;;;;;;;;;;;;;;13.13;18.50;97057.97;6174808;28;19930;-70
2023/01/30 09:41:32;;;;;;;;;;;;;;;11.63;19.47;97055.16;6190161;28;19936;-70
2023/01/30 09:44:41;;;;;;;;;;;;;;;8.89;21.70;97055.06;6222794;28;20020;-71
2023/01/30 09:47:51;;;;;;;;;;;;;;;6.53;24.36;97046.00;6222600;28;19926;-70
2023/01/30 09:51:15;;;;;;;;;;;;;;;4.67;26.96;97045.09;6222043;28;20306;-71
2023/01/30 09:54:20;;;;;;;;;;;;;;;3.75;28.30;97043.28;6224347;28;20303;-69
2023/01/30 09:57:23;;;;;;;;;;;;;;;2.10;30.38;97045.06;6222347;28;20064;-70
2023/01/30 10:00:32;;;;;;;;;;;;;;;3.17;29.45;97040.94;6221860;28;20012;-69
2023/01/30 10:03:40;;;;;;;;;;;;;;;5.23;26.92;97034.19;6222334;28;20323;-70
2023/01/30 10:07:01;;;;;;;;;;;;;;;6.04;25.85;97048.22;6221955;28;20020;-71
2023/01/30 10:10:14;;;;;;;;;;;;;;;6.16;25.56;97047.66;6222387;28;20063;-70
2023/01/30 10:13:38;;;;;;;;;;;;;;;5.84;25.93;97047.28;6221869;28;19925;-69
2023/01/30 10:16:42;;;;;;;;;;;;;;;6.32;25.40;97033.91;6222171;28;19932;-71
2023/01/30 10:20:06;;;;;;;;;;;;;;;6.41;24.84;97041.34;6222257;28;19925;-70
2023/01/30 10:23:10;;;;;;;;;;;;;;;6.72;24.61;97049.47;6223619;28;19933;-69
2023/01/30 10:26:15;;;;;;;;;;;;;;;6.49;24.71;97045.28;6221413;28;20469;-70
2023/01/30 10:29:23;;;;;;;;;;;;;;;6.80;24.60;97058.72;6221294;28;19926;-70
2023/01/30 10:32:27;;;;;;;;;;;;;;;6.88;24.55;97046.09;6221835;28;20020;-70
2023/01/30 10:35:37;;;;;;;;;;;;;;;6.39;24.60;97041.38;6221830;28;19926;-69
2023/01/30 10:38:42;;;;;;;;;;;;;;;5.51;25.70;97038.25;6221571;28;19926;-70
2023/01/30 10:41:48;;;;;;;;;;;;;;;5.13;26.09;97043.31;6220767;28;19925;-69
2023/01/30 10:44:59;;;;;;;;;;;;;;;3.62;28.03;97036.81;6221507;28;19926;-69
2023/01/30 10:48:15;;;;;;;;;;;;;;;2.79;29.23;97049.94;6221659;28;19929;-69
2023/01/30 10:51:37;;;;;;;;;;;;;;;1.45;31.25;97035.56;6221505;28;19925;-70
2023/01/30 10:54:54;;;;;;;;;;;;;;;-0.70;34.41;97039.44;6220833;28;19937;-69
2023/01/30 10:58:10;;;;;;;;;;;;;;;-1.69;36.31;97041.84;6220531;28;20302;-69
2023/01/30 11:01:23;;;;;;;;;;;;;;;-2.32;37.59;97033.19;6221201;28;19926;-69
2023/01/30 11:04:35;;;;;;;;;;;;;;;-2.46;39.30;97045.38;6220808;28;19926;-69
2023/01/30 11:07:42;;;;;;;;;;;;;;;-3.31;40.42;97054.69;6220816;28;19925;-69
2023/01/30 11:10:43;;;;;;;;;;;;;;;-3.99;41.07;97057.69;6220386;28;19967;-69
2023/01/30 11:13:47;;;;;;;;;;;;;;;-3.96;42.12;97062.81;6221048;28;20329;-70
2023/01/30 11:16:51;;;;;;;;;;;;;;;-4.55;43.29;97059.59;6220977;28;19925;-71
2023/01/30 11:20:01;;;;;;;;;;;;;;;-5.08;44.31;97060.53;6220851;28;19926;-70
2023/01/30 11:23:07;;;;;;;;;;;;;;;-5.69;44.81;97060.47;6220765;28;19925;-68
2023/01/30 11:26:31;;;;;;;;;;;;;;;-5.68;46.09;97068.19;6220937;28;19925;-70
2023/01/30 11:29:34;;;;;;;;;;;;;;;-5.92;46.13;97057.84;6219996;28;19955;-70
2023/01/30 11:32:35;;;;;;;;;;;;;;;-6.12;46.89;97047.59;6220074;28;19926;-69
2023/01/30 11:35:42;;;;;;;;;;;;;;;-6.25;47.25;97054.38;6219989;28;19988;-70
2023/01/30 11:38:53;;;;;;;;;;;;;;;-6.35;48.19;97063.72;6220291;28;19932;-70
2023/01/30 11:42:02;;;;;;;;;;;;;;;-6.81;48.64;97058.38;6220343;28;19925;-69
2023/01/30 11:45:03;;;;;;;;;;;;;;;-7.01;49.46;97060.78;6220500;28;19967;-70
2023/01/30 11:48:13;;;;;;;;;;;;;;;-7.02;49.50;97063.31;6220764;28;19925;-70
2023/01/30 11:51:17;;;;;;;;;;;;;;;-7.64;50.47;97064.56;6220843;28;20012;-69
2023/01/30 11:54:30;;;;;;;;;;;;;;;-7.87;50.38;97059.19;6220305;28;19929;-70
2023/01/30 11:57:54;;;;;;;;;;;;;;;-7.95;51.03;97066.78;6219789;28;19925;-70
2023/01/30 12:00:57;;;;;;;;;;;;;;;-8.01;52.23;97060.75;6220151;28;20323;-70
2023/01/30 12:04:01;;;;;;;;;;;;;;;-8.25;52.00;97066.44;6220532;28;19925;-70
2023/01/30 12:07:08;;;;;;;;;;;;;;;-8.07;53.11;97068.34;6220273;28;19925;-70
2023/01/30 12:10:25;;;;;;;;;;;;;;;-8.01;53.14;97055.63;6220354;28;20322;-70
2023/01/30 12:13:30;;;;;;;;;;;;;;;-8.06;53.17;97054.75;6234944;28;20311;-70
2023/01/30 12:16:33;;;;;;;;;;;;;;;-8.13;54.20;97059.78;6220545;28;20413;-71
2023/01/30 12:19:48;;;;;;;;;;;;;;;-8.50;53.54;97055.13;6220193;28;19925;-70
2023/01/30 12:22:57;;;;;;;;;;;;;;;-8.67;54.28;97048.09;6219493;28;19926;-69
2023/01/30 12:26:03;;;;;;;;;;;;;;;-8.82;55.00;97055.56;6219423;28;19932;-69
2023/01/30 12:29:21;;;;;;;;;;;;;;;-8.92;55.13;97051.16;6219747;28;19925;-69
2023/01/30 12:32:25;;;;;;;;;;;;;;;-8.92;55.40;97053.72;6219502;28;20023;-70
2023/01/30 12:35:35;;;;;;;;;;;;;;;-8.86;55.53;97064.00;6220050;28;19925;-70
2023/01/30 12:38:42;;;;;;;;;;;;;;;-9.09;55.84;97069.59;6219607;28;20383;-68
2023/01/30 12:41:59;;;;;;;;;;;;;;;-9.51;56.35;97068.13;6219427;28;20410;-69
2023/01/30 12:45:15;;;;;;;;;;;;;;;-9.84;56.35;97073.50;6218980;28;19926;-69
2023/01/30 12:48:21;;;;;;;;;;;;;;;-9.84;56.83;97070.94;6222949;28;19933;-71
2023/01/30 12:51:23;;;;;;;;;;;;;;;-9.89;56.63;97071.69;6223665;28;20304;-70
2023/01/30 12:54:33;;;;;;;;;;;;;;;-9.68;57.09;97077.19;6223407;28;20423;-69
2023/01/30 12:57:49;;;;;;;;;;;;;;;-9.74;56.87;97066.84;6223678;28;19929;-69
2023/01/30 13:01:08;;;;;;;;;;;;;;;-10.15;57.26;97077.16;6223004;28;19988;-70
2023/01/30 13:04:12;;;;;;;;;;;;;;;-10.26;57.86;97081.19;6223488;28;19936;-70
2023/01/30 13:07:27;;;;;;;;;;;;;;;-10.31;58.10;97082.81;6222978;28;19932;-70
2023/01/30 13:10:43;;;;;;;;;;;;;;;-10.31;58.59;97082.81;6223402;28;20007;-70
2023/01/30 13:13:51;;;;;;;;;;;;;;;-10.15;58.57;97079.72;6222453;28;19926;-69
2023/01/30 13:17:08;;;;;;;;;;;;;;;-10.28;59.05;97073.53;6223277;28;19925;-70
2023/01/30 13:20:11;;;;;;;;;;;;;;;-10.37;59.05;97077.59;6223391;28;19926;-70
2023/01/30 13:23:31;;;;;;;;;;;;;;;-10.46;59.73;97089.31;6223294;28;20414;-70
2023/01/30 13:26:36;;;;;;;;;;;;;;;-10.40;59.47;97089.41;6223231;28;19925;-69
2023/01/30 13:29:40;;;;;;;;;;;;;;;-10.46;59.91;97085.91;6223040;28;19925;-70
2023/01/30 13:32:44;;;;;;;;;;;;;;;-10.69;59.84;97087.97;6222850;28;19931;-72
2023/01/30 13:36:10;;;;;;;;;;;;;;;-10.69;59.89;97085.44;6222360;28;19925;-69
2023/01/30 13:39:16;;;;;;;;;;;;;;;-10.77;60.27;97082.72;6222444;28;20354;-69
2023/01/30 13:42:19;;;;;;;;;;;;;;;-10.68;59.69;97088.00;6222807;28;19926;-71
2023/01/30 13:45:25;;;;;;;;;;;;;;;-10.30;60.44;97085.41;6222314;28;19932;-71
2023/01/30 13:48:30;;;;;;;;;;;;;;;-10.18;60.14;97095.78;6222018;28;20079;-69
2023/01/30 13:51:45;;;;;;;;;;;;;;;-10.24;60.53;97092.25;6222422;28;19991;-71
2023/01/30 13:54:48;;;;;;;;;;;;;;;-10.32;60.35;97087.03;6220666;28;19952;-70
2023/01/30 13:57:57;;;;;;;;;;;;;;;-10.08;60.72;97075.56;6222068;28;20386;-70
2023/01/30 14:01:01;;;;;;;;;;;;;;;-10.06;60.64;97084.09;6221823;28;20341;-71
2023/01/30 14:04:22;;;;;;;;;;;;;;;-10.48;60.81;97085.88;6236677;28;20301;-70
2023/01/30 14:07:38;;;;;;;;;;;;;;;-10.78;60.90;97090.28;6221656;28;20399;-70
2023/01/30 14:10:42;;;;;;;;;;;;;;;-10.87;61.48;97086.75;6222024;28;19926;-70
2023/01/30 14:13:50;;;;;;;;;;;;;;;-10.44;62.22;97087.66;6221873;28;19944;-69
2023/01/30 14:16:55;;;;;;;;;;;;;;;-10.27;61.48;97082.06;6221693;28;19929;-70
2023/01/30 14:20:00;;;;;;;;;;;;;;;-10.13;61.80;97098.41;6222075;28;19964;-69
2023/01/30 14:23:27;;;;;;;;;;;;;;;-9.90;61.41;97098.00;6221870;28;19921;-71
2023/01/30 14:26:47;;;;;;;;;;;;;;;-9.70;60.98;97089.03;6221683;28;19933;-69
2023/01/30 14:29:49;;;;;;;;;;;;;;;-9.96;61.19;97076.69;6221307;28;19925;-69
2023/01/30 14:32:52;;;;;;;;;;;;;;;-10.05;61.14;97084.13;6221974;28;20319;-69
2023/01/30 14:36:02;;;;;;;;;;;;;;;-10.18;61.50;97089.81;6221936;28;19925;-70
2023/01/30 14:39:21;;;;;;;;;;;;;;;-10.50;61.65;97087.53;6221491;28;19925;-69
2023/01/30 14:42:27;;;;;;;;;;;;;;;-10.67;61.86;97093.94;6221269;28;19925;-70
2023/01/30 14:45:48;;;;;;;;;;;;;;;-10.70;62.53;97094.75;6220996;28;19925;-70
2023/01/30 14:49:04;;;;;;;;;;;;;;;-10.65;62.58;97082.13;6220505;28;20219;-71
2023/01/30 14:52:22;;;;;;;;;;;;;;;-10.68;62.72;97076.97;6220925;28;19926;-70
2023/01/30 14:55:25;;;;;;;;;;;;;;;-10.63;62.60;97080.47;6221527;28;19921;-70
2023/01/30 14:58:31;;;;;;;;;;;;;;;-10.79;62.56;97083.50;6220711;28;19925;-70
2023/01/30 15:01:53;;;;;;;;;;;;;;;-10.80;62.82;97090.28;6220918;28;19925;-71
2023/01/30 15:05:00;;;;;;;;;;;;;;;-10.42;63.10;97078.34;6220677;28;20457;-69
2023/01/30 15:08:12;;;;;;;;;;;;;;;-10.25;62.80;97090.53;6220618;28;19925;-70
2023/01/30 15:11:28;;;;;;;;;;;;;;;-10.40;63.18;97084.34;6221030;28;20023;-69
2023/01/30 15:14:37;;;;;;;;;;;;;;;-10.62;62.80;97093.19;6220823;28;19932;-70
2023/01/30 15:17:56;;;;;;;;;;;;;;;-10.65;63.37;97093.13;6220272;28;20015;-69
2023/01/30 15:21:15;;;;;;;;;;;;;;;-10.46;63.58;97093.53;6220551;28;19929;-70
2023/01/30 15:24:19;;;;;;;;;;;;;;;-10.34;63.06;97092.91;6220673;28;19929;-70
2023/01/30 15:27:32;;;;;;;;;;;;;;;-10.09;62.40;97090.00;6220669;28;19925;-70
2023/01/30 15:30:58;;;;;;;;;;;;;;;-10.26;61.98;97092.22;6220805;28;20307;-70
2023/01/30 15:34:18;;;;;;;;;;;;;;;-10.35;62.03;97088.69;6220958;28;19925;-70
2023/01/30 15:37:28;;;;;;;;;;;;;;;-10.25;62.02;97090.53;6220399;28;20036;-69
2023/01/30 15:40:32;;;;;;;;;;;;;;;-10.53;62.13;97095.09;6220291;28;19925;-69
2023/01/30 15:43:51;;;;;;;;;;;;;;;-10.75;62.24;97095.47;6218950;28;19925;-71
2023/01/30 15:46:52;;;;;;;;;;;;;;;-10.75;62.62;97098.03;6218832;28;19925;-70
2023/01/30 15:50:00;;;;;;;;;;;;;;;-10.95;62.49;97098.44;6220213;28;19925;-70
2023/01/30 15:53:01;;;;;;;;;;;;;;;-11.21;62.56;97096.97;6220093;28;20324;-69
2023/01/30 15:56:05;;;;;;;;;;;;;;;-11.38;62.72;97102.53;6219673;28;19932;-70
2023/01/30 15:59:07;;;;;;;;;;;;;;;-11.58;62.98;97093.53;6220353;28;19925;-70
2023/01/30 16:02:24;;;;;;;;;;;;;;;-11.38;63.43;97092.38;6220312;28;19925;-70
2023/01/30 16:05:30;;;;;;;;;;;;;;;-11.59;62.81;97089.28;6220316;28;20395;-70
2023/01/30 16:08:36;;;;;;;;;;;;;;;-11.61;62.64;97089.25;6220308;28;19925;-70
2023/01/30 16:11:47;;;;;;;;;;;;;;;-11.63;62.15;97090.03;6220177;28;20346;-69
2023/01/30 16:14:57;;;;;;;;;;;;;;;-11.88;62.57;97092.00;6220095;28;19929;-70